createdAt,value
2023-05-17T00:00:57.247Z,3.50
2023-05-17T00:03:24.141Z,5.10
2023-05-17T00:05:51.014Z,3.90
2023-05-17T00:08:17.770Z,4.47
2023-05-17T00:10:44.450Z,4.67
2023-05-17T00:13:11.337Z,6.60
2023-05-17T00:15:38.004Z,5.77
2023-05-17T00:18:04.843Z,2.83
2023-05-17T00:20:31.819Z,4.63
2023-05-17T00:22:58.530Z,5.10
2023-05-17T00:25:25.212Z,3.37
2023-05-17T00:27:51.937Z,3.00
2023-05-17T00:30:18.808Z,3.63
2023-05-17T00:32:46.808Z,9.37
2023-05-17T00:35:14.077Z,7.93
2023-05-17T00:37:40.891Z,3.40
2023-05-17T00:40:08.256Z,6.27
2023-05-17T00:42:34.952Z,4.30
2023-05-17T00:45:01.735Z,2.83
2023-05-17T00:47:28.557Z,3.83
2023-05-17T00:49:55.663Z,4.77
2023-05-17T00:52:22.498Z,8.30
2023-05-17T00:54:51.938Z,5.90
2023-05-17T00:57:18.860Z,3.10
2023-05-17T00:59:46.397Z,8.73
2023-05-17T01:02:13.188Z,3.37
2023-05-17T01:04:41.583Z,3.73
2023-05-17T01:07:09.745Z,4.40
2023-05-17T01:09:37.129Z,3.10
2023-05-17T01:12:34.685Z,5.80
2023-05-17T01:15:13.268Z,2.23
2023-05-17T01:17:51.332Z,3.60
2023-05-17T01:20:28.505Z,2.47
2023-05-17T01:23:10.932Z,4.17
2023-05-17T01:26:13.914Z,2.37
2023-05-17T01:28:43.265Z,5.00
2023-05-17T01:31:11.161Z,4.73
2023-05-17T01:33:38.807Z,2.70
2023-05-17T01:36:06.057Z,4.27
2023-05-17T01:38:32.748Z,4.00
2023-05-17T01:41:10.692Z,3.80
2023-05-17T01:44:05.649Z,4.10
2023-05-17T01:46:43.350Z,2.77
2023-05-17T01:49:26.395Z,3.67
2023-05-17T01:52:16.840Z,2.27
2023-05-17T01:54:54.159Z,3.90
2023-05-17T01:57:27.961Z,4.67
2023-05-17T01:59:57.067Z,3.30
2023-05-17T02:02:24.060Z,7.13
2023-05-17T02:04:51.572Z,6.60
2023-05-17T02:07:18.347Z,2.47
2023-05-17T02:09:44.990Z,5.80
2023-05-17T02:12:11.771Z,4.83
2023-05-17T02:14:38.595Z,6.13
2023-05-17T02:17:05.960Z,5.30
2023-05-17T02:19:32.931Z,3.57
2023-05-17T02:22:00.057Z,6.33
2023-05-17T02:24:26.984Z,3.63
2023-05-17T02:26:53.621Z,5.17
2023-05-17T02:29:20.400Z,3.47
2023-05-17T02:31:47.173Z,3.10
2023-05-17T02:34:13.861Z,2.67
2023-05-17T02:36:41.097Z,2.20
2023-05-17T02:39:07.829Z,2.37
2023-05-17T02:41:34.459Z,5.30
2023-05-17T02:44:01.237Z,3.13
2023-05-17T02:46:27.919Z,4.03
2023-05-17T02:48:54.631Z,3.30
2023-05-17T02:51:21.387Z,6.60
2023-05-17T02:53:48.272Z,3.87
2023-05-17T02:56:14.917Z,3.50
2023-05-17T02:58:41.789Z,6.90
2023-05-17T03:01:09.452Z,3.67
2023-05-17T03:03:36.468Z,5.50
2023-05-17T03:06:05.184Z,2.97
2023-05-17T03:08:32.807Z,5.13
2023-05-17T03:11:01.423Z,8.13
2023-05-17T03:13:28.280Z,2.40
2023-05-17T03:15:55.040Z,3.73
2023-05-17T03:18:22.841Z,5.23
2023-05-17T03:20:49.729Z,2.97
2023-05-17T03:23:17.287Z,3.93
2023-05-17T03:25:51.833Z,4.80
2023-05-17T03:28:18.728Z,6.87
2023-05-17T03:30:45.686Z,3.73
2023-05-17T03:33:13.378Z,3.07
2023-05-17T03:35:40.123Z,2.70
2023-05-17T03:38:06.892Z,4.13
2023-05-17T03:40:33.663Z,3.20
2023-05-17T03:43:01.266Z,4.60
2023-05-17T03:45:28.956Z,5.27
2023-05-17T03:47:56.057Z,3.37
2023-05-17T03:50:23.306Z,4.90
2023-05-17T03:52:50.525Z,3.70
2023-05-17T03:55:17.180Z,6.30
2023-05-17T03:57:44.108Z,8.23
2023-05-17T04:00:11.860Z,7.43
2023-05-17T04:02:41.607Z,7.17
2023-05-17T04:05:08.859Z,14.93
2023-05-17T04:07:35.736Z,11.33
2023-05-17T04:10:02.971Z,12.93
2023-05-17T04:12:29.838Z,16.77
2023-05-17T04:14:56.605Z,17.07
2023-05-17T04:17:23.621Z,18.53
2023-05-17T04:19:50.817Z,22.53
2023-05-17T04:22:17.534Z,27.27
2023-05-17T04:24:44.282Z,31.63
2023-05-17T04:27:11.309Z,29.33
2023-05-17T04:29:38.286Z,29.60
2023-05-17T04:32:05.524Z,34.60
2023-05-17T04:34:32.628Z,37.53
2023-05-17T04:37:00.572Z,35.93
2023-05-17T04:39:30.789Z,33.70
2023-05-17T04:41:57.875Z,32.63
2023-05-17T04:44:24.610Z,28.87
2023-05-17T04:46:52.758Z,34.00
2023-05-17T04:49:19.614Z,39.13
2023-05-17T04:51:46.512Z,33.40
2023-05-17T04:54:13.465Z,32.27
2023-05-17T04:56:40.695Z,39.23
2023-05-17T04:59:13.396Z,43.60
2023-05-17T05:01:40.106Z,42.83
2023-05-17T05:04:07.132Z,46.40
2023-05-17T05:06:38.946Z,42.30
2023-05-17T05:09:05.982Z,55.63
2023-05-17T05:11:34.263Z,62.60
2023-05-17T05:14:01.187Z,52.97
2023-05-17T05:16:27.967Z,52.00
2023-05-17T05:18:54.922Z,59.70
2023-05-17T05:21:22.080Z,53.10
2023-05-17T05:23:48.811Z,65.07
2023-05-17T05:26:15.802Z,49.10
2023-05-17T05:28:42.786Z,59.30
2023-05-17T05:31:10.932Z,63.70
2023-05-17T05:33:44.078Z,58.43
2023-05-17T05:36:10.887Z,54.23
2023-05-17T05:38:37.608Z,49.23
2023-05-17T05:41:05.557Z,54.03
2023-05-17T05:43:32.258Z,51.33
2023-05-17T05:45:59.030Z,57.73
2023-05-17T05:48:26.014Z,49.17
2023-05-17T05:50:52.941Z,57.23
2023-05-17T05:53:20.006Z,58.53
2023-05-17T05:55:55.911Z,54.20
2023-05-17T05:58:22.755Z,57.07
2023-05-17T06:00:50.250Z,53.03
2023-05-17T06:03:16.977Z,65.70
2023-05-17T06:05:43.912Z,50.60
2023-05-17T06:08:10.658Z,49.60
2023-05-17T06:10:37.372Z,50.43
2023-05-17T06:13:04.075Z,50.67
2023-05-17T06:15:31.892Z,42.60
2023-05-17T06:17:58.687Z,45.10
2023-05-17T06:20:25.504Z,43.20
2023-05-17T06:22:52.160Z,37.13
2023-05-17T06:25:18.977Z,35.67
2023-05-17T06:27:46.150Z,36.27
2023-05-17T06:30:13.406Z,34.50
2023-05-17T06:32:40.203Z,41.33
2023-05-17T06:35:07.652Z,30.60
2023-05-17T06:37:34.331Z,29.40
2023-05-17T06:40:16.755Z,26.33
2023-05-17T06:42:43.875Z,19.83
2023-05-17T06:45:11.932Z,17.67
2023-05-17T06:47:38.784Z,11.50
2023-05-17T06:50:06.856Z,15.30
2023-05-17T06:52:33.590Z,14.33
2023-05-17T06:55:00.372Z,8.23
2023-05-17T06:57:27.058Z,9.00
2023-05-17T06:59:53.706Z,15.87
2023-05-17T07:02:20.538Z,6.47
2023-05-17T07:04:47.424Z,9.23
2023-05-17T07:07:14.236Z,9.33
2023-05-17T07:09:41.291Z,11.00
2023-05-17T07:12:08.045Z,10.20
2023-05-17T07:14:34.791Z,8.40
2023-05-17T07:17:01.681Z,6.63
2023-05-17T07:19:28.486Z,8.70
2023-05-17T07:21:55.293Z,10.87
2023-05-17T07:24:21.975Z,9.07
2023-05-17T07:26:50.817Z,11.30
2023-05-17T07:29:18.789Z,8.00
2023-05-17T07:31:45.583Z,5.90
2023-05-17T07:34:13.581Z,4.57
2023-05-17T07:36:40.476Z,11.23
2023-05-17T07:39:08.701Z,6.20
2023-05-17T07:41:36.612Z,7.70
2023-05-17T07:44:03.283Z,9.90
2023-05-17T07:46:30.004Z,8.37
2023-05-17T07:48:58.863Z,11.47
2023-05-17T07:51:26.186Z,8.00
2023-05-17T07:53:52.876Z,13.57
2023-05-17T07:56:19.658Z,8.37
2023-05-17T07:58:47.431Z,5.93
2023-05-17T08:01:14.239Z,11.30
2023-05-17T08:03:47.679Z,6.53
2023-05-17T08:06:18.239Z,8.67
2023-05-17T08:08:45.299Z,7.10
2023-05-17T08:11:12.966Z,5.60
2023-05-17T08:13:39.747Z,10.83
2023-05-17T08:16:13.727Z,6.93
2023-05-17T08:18:43.014Z,4.50
2023-05-17T08:21:13.562Z,4.77
2023-05-17T08:23:41.576Z,11.03
2023-05-17T08:26:08.274Z,7.73
2023-05-17T08:28:34.929Z,9.17
2023-05-17T08:31:01.966Z,5.23
2023-05-17T08:33:28.740Z,7.33
2023-05-17T08:35:57.698Z,6.60
2023-05-17T08:38:24.371Z,5.30
2023-05-17T08:40:59.685Z,10.47
2023-05-17T08:43:27.712Z,4.97
2023-05-17T08:45:57.778Z,6.63
2023-05-17T08:48:26.370Z,6.27
2023-05-17T08:50:55.763Z,10.47
2023-05-17T08:53:23.530Z,9.87
2023-05-17T08:55:51.028Z,9.13
2023-05-17T08:58:25.689Z,9.17
2023-05-17T09:00:54.263Z,9.30
2023-05-17T09:03:22.673Z,7.90
2023-05-17T09:05:53.452Z,9.07
2023-05-17T09:08:22.358Z,7.20
2023-05-17T09:10:50.067Z,8.63
2023-05-17T09:13:16.825Z,8.97
2023-05-17T09:15:44.924Z,6.20
2023-05-17T09:18:17.746Z,8.50
2023-05-17T09:20:51.617Z,5.83
2023-05-17T09:23:21.483Z,8.80
2023-05-17T09:25:49.352Z,10.17
2023-05-17T09:28:19.511Z,5.73
2023-05-17T09:30:48.488Z,7.43
2023-05-17T09:33:17.782Z,7.10
2023-05-17T09:35:45.815Z,8.87
2023-05-17T09:38:13.681Z,6.07
2023-05-17T09:40:43.330Z,7.13
2023-05-17T09:43:10.878Z,7.57
2023-05-17T09:45:38.331Z,6.13
2023-05-17T09:48:16.466Z,7.17
2023-05-17T09:50:48.750Z,7.53
2023-05-17T09:53:26.366Z,6.77
2023-05-17T09:55:54.670Z,6.40
2023-05-17T09:58:22.349Z,6.60
2023-05-17T10:01:02.092Z,8.73
2023-05-17T10:03:33.273Z,9.77
2023-05-17T10:06:03.717Z,7.70
2023-05-17T10:08:31.786Z,11.87
2023-05-17T10:11:03.942Z,7.03
2023-05-17T10:13:35.935Z,6.80
2023-05-17T10:16:03.027Z,7.23
2023-05-17T10:18:31.865Z,8.40
2023-05-17T10:20:59.116Z,6.80
2023-05-17T10:23:27.499Z,5.03
2023-05-17T10:25:54.980Z,7.57
2023-05-17T10:28:22.315Z,6.97
2023-05-17T10:30:51.342Z,5.00
2023-05-17T10:33:20.549Z,4.60
2023-05-17T10:35:49.245Z,3.43
2023-05-17T10:38:18.315Z,5.47
2023-05-17T10:40:47.107Z,6.57
2023-05-17T10:43:15.561Z,6.90
2023-05-17T10:45:42.695Z,3.90
2023-05-17T10:48:10.752Z,5.83
2023-05-17T10:50:47.324Z,5.70
2023-05-17T10:53:20.886Z,7.03
2023-05-17T10:55:47.719Z,6.33
2023-05-17T10:58:16.717Z,6.80
2023-05-17T11:00:47.312Z,4.77
2023-05-17T11:03:19.015Z,7.70
2023-05-17T11:06:23.993Z,5.93
2023-05-17T11:09:16.216Z,5.37
2023-05-17T11:12:09.141Z,6.27
2023-05-17T11:14:45.113Z,5.77
2023-05-17T11:17:17.755Z,11.13
2023-05-17T11:19:59.342Z,7.40
2023-05-17T11:22:27.483Z,6.60
2023-05-17T11:24:57.247Z,5.43
2023-05-17T11:27:27.491Z,9.37
2023-05-17T11:29:58.817Z,10.37
2023-05-17T11:32:32.989Z,4.33
2023-05-17T11:35:03.159Z,7.20
2023-05-17T11:37:30.189Z,8.07
2023-05-17T11:40:05.852Z,6.53
2023-05-17T11:42:33.592Z,7.20
2023-05-17T11:45:04.345Z,8.53
2023-05-17T11:47:31.694Z,6.43
2023-05-17T11:50:03.622Z,6.80
2023-05-17T11:52:31.718Z,4.53
2023-05-17T11:54:59.018Z,7.00
2023-05-17T11:57:32.309Z,8.80
2023-05-17T12:00:04.933Z,8.07
2023-05-17T12:02:39.242Z,4.13
2023-05-17T12:05:09.084Z,5.00
2023-05-17T12:07:37.282Z,9.93
2023-05-17T12:10:05.845Z,4.73
2023-05-17T12:12:32.539Z,6.83
2023-05-17T12:14:59.730Z,6.17
2023-05-17T12:17:38.342Z,8.20
2023-05-17T12:20:09.303Z,5.53
2023-05-17T12:22:54.310Z,11.20
2023-05-17T12:25:25.041Z,7.13
2023-05-17T12:27:52.197Z,6.43
2023-05-17T12:30:19.335Z,8.67
2023-05-17T12:32:47.132Z,7.67
2023-05-17T12:35:14.040Z,9.03
2023-05-17T12:37:40.926Z,7.37
2023-05-17T12:40:08.825Z,3.10
2023-05-17T12:42:35.874Z,4.57
2023-05-17T12:45:03.124Z,3.33
2023-05-17T12:47:32.941Z,9.80
2023-05-17T12:50:03.048Z,5.00
2023-05-17T12:52:38.661Z,7.30
2023-05-17T12:55:05.849Z,5.17
2023-05-17T12:57:33.127Z,5.50
2023-05-17T13:00:07.519Z,7.50
2023-05-17T13:02:34.300Z,7.20
2023-05-17T13:05:18.383Z,6.30
2023-05-17T13:07:46.315Z,5.80
2023-05-17T13:10:27.325Z,7.13
2023-05-17T13:12:58.426Z,7.37
2023-05-17T13:15:33.297Z,4.60
2023-05-17T13:18:00.724Z,5.23
2023-05-17T13:20:27.831Z,7.57
2023-05-17T13:22:54.876Z,11.23
2023-05-17T13:25:21.572Z,5.47
2023-05-17T13:27:51.645Z,5.80
2023-05-17T13:30:18.330Z,5.27
2023-05-17T13:32:47.081Z,5.90
2023-05-17T13:35:13.780Z,6.43
2023-05-17T13:37:40.663Z,3.33
2023-05-17T13:40:08.280Z,5.93
2023-05-17T13:42:35.113Z,4.00
2023-05-17T13:45:02.006Z,9.30
2023-05-17T13:47:32.192Z,6.20
2023-05-17T13:50:03.580Z,4.80
2023-05-17T13:52:31.190Z,7.73
2023-05-17T13:54:57.866Z,8.47
2023-05-17T13:57:24.596Z,5.93
2023-05-17T13:59:51.280Z,4.87
2023-05-17T14:02:18.243Z,7.63
2023-05-17T14:04:44.899Z,7.00
2023-05-17T14:07:11.671Z,6.07
2023-05-17T14:09:39.635Z,4.30
2023-05-17T14:12:06.557Z,5.87
2023-05-17T14:14:33.283Z,7.07
2023-05-17T14:17:01.391Z,8.23
2023-05-17T14:19:28.187Z,20.00
2023-05-17T14:21:54.979Z,5.40
2023-05-17T14:24:21.787Z,7.23
2023-05-17T14:26:48.473Z,7.57
2023-05-17T14:29:15.191Z,5.33
2023-05-17T14:31:42.338Z,9.10
2023-05-17T14:34:09.189Z,6.07
2023-05-17T14:36:38.094Z,7.00
2023-05-17T14:39:05.387Z,10.20
2023-05-17T14:41:32.084Z,4.03
2023-05-17T14:43:58.734Z,9.73
2023-05-17T14:46:25.538Z,7.87
2023-05-17T14:48:52.317Z,5.90
2023-05-17T14:51:19.400Z,8.17
2023-05-17T14:53:46.507Z,5.93
2023-05-17T14:56:15.098Z,6.60
2023-05-17T14:58:42.180Z,5.60
2023-05-17T15:01:09.088Z,5.33
2023-05-17T15:03:36.002Z,6.60
2023-05-17T15:06:06.855Z,6.73
2023-05-17T15:08:35.743Z,5.60
2023-05-17T15:11:02.860Z,5.70
2023-05-17T15:13:29.544Z,7.20
2023-05-17T15:15:56.218Z,9.50
2023-05-17T15:18:22.894Z,4.43
2023-05-17T15:20:49.736Z,7.00
2023-05-17T15:23:16.478Z,5.97
2023-05-17T15:25:43.130Z,4.80
2023-05-17T15:28:09.888Z,6.43
2023-05-17T15:30:36.610Z,7.40
2023-05-17T15:33:03.562Z,4.13
2023-05-17T15:35:30.599Z,6.67
2023-05-17T15:37:59.266Z,6.40
2023-05-17T15:40:25.991Z,7.23
2023-05-17T15:42:52.801Z,8.60
2023-05-17T15:45:21.363Z,8.23
2023-05-17T15:47:49.279Z,6.07
2023-05-17T15:50:16.262Z,6.90
2023-05-17T15:52:43.115Z,6.00
2023-05-17T15:55:10.491Z,8.27
2023-05-17T15:57:37.141Z,5.93
2023-05-17T16:00:04.850Z,6.93
2023-05-17T16:02:31.884Z,4.80
2023-05-17T16:05:00.610Z,5.93
2023-05-17T16:07:29.393Z,7.70
2023-05-17T16:09:56.053Z,3.70
2023-05-17T16:12:22.724Z,5.97
2023-05-17T16:14:49.751Z,7.73
2023-05-17T16:17:16.565Z,5.60
2023-05-17T16:19:43.600Z,3.97
2023-05-17T16:22:10.516Z,8.77
2023-05-17T16:24:37.223Z,6.13
2023-05-17T16:27:07.222Z,4.70
2023-05-17T16:29:39.586Z,5.90
2023-05-17T16:32:07.589Z,4.43
2023-05-17T16:34:34.317Z,9.10
2023-05-17T16:37:00.998Z,6.87
2023-05-17T16:39:28.630Z,7.80
2023-05-17T16:41:55.746Z,9.80
2023-05-17T16:44:22.450Z,7.00
2023-05-17T16:46:49.164Z,7.27
2023-05-17T16:49:15.848Z,13.73
2023-05-17T16:51:42.510Z,9.17
2023-05-17T16:54:09.407Z,8.67
2023-05-17T16:56:36.522Z,8.93
2023-05-17T16:59:03.234Z,6.80
2023-05-17T17:01:29.987Z,9.27
2023-05-17T17:03:56.840Z,10.80
2023-05-17T17:06:23.624Z,10.80
2023-05-17T17:08:50.446Z,5.67
2023-05-17T17:11:21.699Z,7.67
2023-05-17T17:13:48.881Z,7.03
2023-05-17T17:16:15.653Z,8.30
2023-05-17T17:18:42.429Z,7.70
2023-05-17T17:21:09.142Z,5.70
2023-05-17T17:23:36.586Z,8.20
2023-05-17T17:26:03.263Z,4.30
2023-05-17T17:28:29.936Z,9.23
2023-05-17T17:30:56.750Z,6.50
2023-05-17T17:33:23.518Z,8.03
2023-05-17T17:35:50.281Z,6.63
2023-05-17T17:38:17.068Z,8.70
2023-05-17T17:40:43.810Z,8.20
2023-05-17T17:43:10.541Z,6.80
2023-05-17T17:45:37.346Z,6.53
2023-05-17T17:48:04.107Z,7.73
2023-05-17T17:50:31.339Z,9.23
2023-05-17T17:52:58.613Z,10.23
2023-05-17T17:55:25.713Z,4.70
2023-05-17T17:57:52.457Z,8.33
2023-05-17T18:00:19.553Z,7.90
2023-05-17T18:02:46.306Z,11.53
2023-05-17T18:05:13.156Z,8.00
2023-05-17T18:07:39.886Z,10.53
2023-05-17T18:10:07.203Z,10.07
2023-05-17T18:12:33.932Z,6.03
2023-05-17T18:15:00.764Z,15.60
2023-05-17T18:17:28.357Z,6.93
2023-05-17T18:19:55.105Z,12.97
2023-05-17T18:22:21.934Z,5.17
2023-05-17T18:24:49.378Z,10.40
2023-05-17T18:27:16.728Z,11.77
2023-05-17T18:29:43.537Z,10.50
2023-05-17T18:32:10.324Z,9.80
2023-05-17T18:34:37.562Z,8.03
2023-05-17T18:37:04.456Z,6.10
2023-05-17T18:39:31.434Z,11.03
2023-05-17T18:41:58.131Z,9.20
2023-05-17T18:44:24.917Z,11.10
2023-05-17T18:46:51.920Z,9.03
2023-05-17T18:49:18.670Z,12.10
2023-05-17T18:51:45.626Z,9.00
2023-05-17T18:54:12.642Z,5.80
2023-05-17T18:56:39.613Z,8.20
2023-05-17T18:59:06.249Z,10.93
2023-05-17T19:01:33.079Z,11.17
2023-05-17T19:03:59.897Z,6.97
2023-05-17T19:06:31.606Z,10.10
2023-05-17T19:08:58.886Z,10.53
2023-05-17T19:11:28.412Z,8.60
2023-05-17T19:13:55.505Z,10.17
2023-05-17T19:16:22.294Z,11.10
2023-05-17T19:18:49.905Z,5.77
2023-05-17T19:21:16.728Z,8.83
2023-05-17T19:23:43.471Z,12.30
2023-05-17T19:26:10.200Z,7.93
2023-05-17T19:28:36.950Z,8.60
2023-05-17T19:31:03.882Z,11.50
2023-05-17T19:33:31.921Z,6.20
2023-05-17T19:35:58.633Z,5.73
2023-05-17T19:38:25.474Z,11.50
2023-05-17T19:40:52.158Z,9.57
2023-05-17T19:43:18.888Z,11.40
2023-05-17T19:45:45.549Z,9.40
2023-05-17T19:48:12.290Z,7.07
2023-05-17T19:50:38.995Z,8.90
2023-05-17T19:53:05.896Z,9.60
2023-05-17T19:55:33.997Z,11.63
2023-05-17T19:58:03.547Z,12.83
2023-05-17T20:00:32.512Z,9.10
2023-05-17T20:02:59.403Z,6.83
2023-05-17T20:05:27.126Z,12.10
2023-05-17T20:07:53.825Z,9.07
2023-05-17T20:10:20.895Z,13.73
2023-05-17T20:12:47.988Z,9.20
2023-05-17T20:15:14.719Z,9.10
2023-05-17T20:17:41.407Z,6.53
2023-05-17T20:20:08.727Z,7.60
2023-05-17T20:22:37.162Z,8.47
2023-05-17T20:25:04.168Z,6.40
2023-05-17T20:27:30.851Z,7.87
2023-05-17T20:29:57.502Z,12.83
2023-05-17T20:32:24.205Z,10.07
2023-05-17T20:34:50.866Z,8.87
2023-05-17T20:37:17.539Z,9.40
2023-05-17T20:39:44.289Z,9.33
2023-05-17T20:42:17.604Z,11.67
2023-05-17T20:44:45.104Z,8.60
2023-05-17T20:47:11.865Z,9.87
2023-05-17T20:49:38.520Z,8.03
2023-05-17T20:52:05.516Z,5.63
2023-05-17T20:54:32.361Z,6.17
2023-05-17T20:56:59.725Z,10.70
2023-05-17T20:59:26.660Z,8.67
2023-05-17T21:01:53.435Z,8.07
2023-05-17T21:04:20.423Z,7.60
2023-05-17T21:06:47.134Z,6.20
2023-05-17T21:09:13.973Z,8.90
2023-05-17T21:11:41.000Z,8.80
2023-05-17T21:14:07.944Z,9.30
2023-05-17T21:16:35.387Z,7.80
2023-05-17T21:19:02.337Z,8.67
2023-05-17T21:21:29.073Z,13.97
2023-05-17T21:23:55.922Z,9.17
2023-05-17T21:26:23.066Z,9.03
2023-05-17T21:28:49.757Z,8.63
2023-05-17T21:31:16.593Z,7.40
2023-05-17T21:33:43.362Z,9.43
2023-05-17T21:36:10.105Z,8.20
2023-05-17T21:38:37.050Z,10.37
2023-05-17T21:41:03.772Z,11.27
2023-05-17T21:43:30.524Z,10.20
2023-05-17T21:45:57.221Z,7.40
2023-05-17T21:48:24.247Z,9.60
2023-05-17T21:50:50.953Z,6.60
2023-05-17T21:53:17.642Z,12.13
2023-05-17T21:56:00.615Z,8.10
2023-05-17T21:58:28.461Z,11.97
2023-05-17T22:00:55.239Z,11.63
2023-05-17T22:03:22.266Z,14.20
2023-05-17T22:05:49.178Z,7.30
2023-05-17T22:08:15.968Z,12.93
2023-05-17T22:10:43.406Z,8.90
2023-05-17T22:13:12.173Z,9.33
2023-05-17T22:15:39.044Z,8.20
2023-05-17T22:18:05.898Z,7.97
2023-05-17T22:20:32.839Z,11.13
2023-05-17T22:22:59.654Z,10.60
2023-05-17T22:25:26.335Z,9.90
2023-05-17T22:27:53.007Z,8.97
2023-05-17T22:30:19.711Z,10.40
2023-05-17T22:32:46.660Z,10.57
2023-05-17T22:35:13.472Z,6.90
2023-05-17T22:37:42.622Z,9.10
2023-05-17T22:40:10.677Z,11.40
2023-05-17T22:42:37.600Z,5.50
2023-05-17T22:45:04.602Z,5.90
2023-05-17T22:47:31.814Z,10.17
2023-05-17T22:50:00.583Z,17.80
2023-05-17T22:52:27.294Z,8.53
2023-05-17T22:54:54.035Z,15.77
2023-05-17T22:57:20.895Z,7.80
2023-05-17T22:59:47.546Z,7.30
2023-05-17T23:02:14.197Z,8.87
2023-05-17T23:04:41.059Z,6.60
2023-05-17T23:07:09.826Z,9.47
2023-05-17T23:09:40.376Z,7.93
2023-05-17T23:12:08.572Z,11.80
2023-05-17T23:14:36.368Z,9.37
2023-05-17T23:17:04.113Z,10.33
2023-05-17T23:19:32.215Z,9.50
2023-05-17T23:22:03.418Z,8.27
2023-05-17T23:24:30.400Z,7.73
2023-05-17T23:26:57.618Z,15.80
2023-05-17T23:29:25.819Z,8.67
2023-05-17T23:31:53.187Z,10.90
2023-05-17T23:34:19.992Z,8.70
2023-05-17T23:36:46.679Z,7.53
2023-05-17T23:39:13.314Z,9.30
2023-05-17T23:41:40.003Z,11.00
2023-05-17T23:44:07.756Z,7.63
2023-05-17T23:46:34.479Z,7.83
2023-05-17T23:49:02.105Z,7.00
2023-05-17T23:51:28.989Z,8.73
2023-05-17T23:53:55.649Z,9.33
2023-05-17T23:56:23.039Z,9.60
2023-05-17T23:58:49.733Z,7.60
